Time;durP1;ratioP1;P1;durP2;ratioP2;P2;SDS_P1;SDS_P2;PMS_P1;PMS_P2;Temp;Humidity;BMP_temperature;BMP_pressure;BME280_temperature;BME280_humidity;BME280_pressure;Samples;Min_cycle;Max_cycle;Signal;HPM_P1;HPM_P2
2022/11/13 00:01:25;;;;;;;;;43.33;38.00;;;;;13.44;73.14;101670.69;5052137;28;45331;-59
2022/11/13 00:03:51;;;;;;;;;112.25;109.50;;;;;13.44;72.85;101669.84;5057976;28;45398;-59
2022/11/13 00:06:17;;;;;;;;;172.25;164.00;;;;;13.43;73.24;101661.06;5057642;28;46112;-60
2022/11/13 00:08:44;;;;;;;;;84.75;80.00;;;;;13.35;73.04;101646.31;5039379;28;45356;-58
2022/11/13 00:11:13;;;;;;;;;114.75;106.50;;;;;13.42;72.87;101661.09;5042489;28;45486;-59
2022/11/13 00:13:39;;;;;;;;;96.25;88.50;;;;;13.41;73.18;101664.66;5054657;28;45614;-59
2022/11/13 00:16:07;;;;;;;;;110.25;101.75;;;;;13.40;73.21;101655.81;5057618;28;45406;-60
2022/11/13 00:18:36;;;;;;;;;55.00;46.75;;;;;13.41;73.04;101659.38;5057748;28;45403;-60
2022/11/13 00:21:16;;;;;;;;;48.50;40.00;;;;;13.41;72.97;101652.28;5051645;28;45565;-58
2022/11/13 00:23:42;;;;;;;;;42.25;37.00;;;;;13.41;73.03;101651.44;5057594;28;45404;-58
2022/11/13 00:26:16;;;;;;;;;53.75;45.50;;;;;13.41;72.86;101643.50;5057535;28;45477;-58
2022/11/13 00:28:42;;;;;;;;;57.00;47.75;;;;;13.39;72.84;101632.97;5039332;28;45412;-59
2022/11/13 00:31:10;;;;;;;;;58.25;47.75;;;;;13.40;72.76;101633.84;5051116;28;45606;-61
2022/11/13 00:33:35;;;;;;;;;53.00;42.50;;;;;13.39;73.06;101632.97;5057328;28;45459;-59
2022/11/13 00:36:19;;;;;;;;;38.25;34.00;;;;;13.38;72.72;101625.06;5052342;28;46181;-58
2022/11/13 00:38:44;;;;;;;;;43.75;37.25;;;;;13.37;73.36;101629.50;5057156;28;45407;-64
2022/11/13 00:41:09;;;;;;;;;42.33;37.33;;;;;13.35;72.47;101619.88;5057268;28;45418;-65
2022/11/13 00:43:35;;;;;;;;;39.00;36.00;;;;;13.34;73.19;101624.31;5043912;28;45414;-59
2022/11/13 00:46:00;;;;;;;;;40.67;37.00;;;;;13.36;72.75;101621.63;5057525;28;46885;-61
2022/11/13 00:48:26;;;;;;;;;46.00;40.00;;;;;13.36;72.73;101621.63;5057347;28;45528;-61
2022/11/13 00:50:51;;;;;;;;;50.25;42.25;;;;;13.34;72.61;101612.88;5057396;28;45874;-61
2022/11/13 00:53:17;;;;;;;;;52.25;42.00;;;;;13.33;72.88;101603.25;5056245;28;45697;-61
2022/11/13 00:55:43;;;;;;;;;40.33;35.67;;;;;13.36;72.52;101609.28;5057036;28;46491;-65
2022/11/13 00:58:10;;;;;;;;;39.00;36.00;;;;;13.35;72.53;101610.22;5056142;28;45553;-61
2022/11/13 01:00:35;;;;;;;;;37.67;34.00;;;;;13.34;72.99;101602.31;5052237;28;45524;-63
2022/11/13 01:03:00;;;;;;;;;37.67;35.00;;;;;13.33;72.54;101601.47;5046635;28;45758;-62
2022/11/13 01:05:26;;;;;;;;;43.00;37.00;;;;;13.33;72.52;101597.97;5056789;28;45477;-63
2022/11/13 01:07:52;;;;;;;;;37.00;35.00;;;;;13.31;72.71;101592.72;5055109;28;45429;-61
2022/11/13 01:10:18;;;;;;;;;37.67;35.00;;;;;13.29;72.68;101583.97;5038143;28;45425;-66
2022/11/13 01:12:43;;;;;;;;;37.67;33.67;;;;;13.30;72.56;101585.72;5057272;28;45429;-64
2022/11/13 01:15:09;;;;;;;;;38.67;34.33;;;;;13.25;72.93;101574.38;5042585;28;46212;-62
2022/11/13 01:17:34;;;;;;;;;36.33;34.00;;;;;13.26;72.75;101571.72;5056908;28;45451;-63
2022/11/13 01:19:59;;;;;;;;;40.50;35.00;;;;;13.22;73.22;101575.34;5055627;28;45435;-65
2022/11/13 01:22:25;;;;;;;;;42.67;37.33;;;;;13.25;72.80;101571.75;5057079;28;45625;-65
2022/11/13 01:24:50;;;;;;;;;39.00;35.33;;;;;13.25;72.79;101566.47;5056550;28;45415;-65
2022/11/13 01:27:15;;;;;;;;;38.67;35.00;;;;;13.24;72.71;101572.63;5055221;28;45441;-64
2022/11/13 01:29:41;;;;;;;;;39.00;35.33;;;;;13.23;72.81;101565.63;5054542;28;45551;-65
2022/11/13 01:32:06;;;;;;;;;38.67;34.00;;;;;13.21;72.44;101560.38;5056784;28;45448;-63
2022/11/13 01:34:32;;;;;;;;;41.00;35.00;;;;;13.22;72.71;101562.13;5056138;28;45407;-62
2022/11/13 01:36:57;;;;;;;;;38.67;34.00;;;;;13.22;72.81;101556.84;5056418;28;45500;-62
2022/11/13 01:39:23;;;;;;;;;38.67;32.67;;;;;13.20;72.50;101550.75;5048282;28;45648;-63
2022/11/13 01:41:48;;;;;;;;;46.50;39.25;;;;;13.23;72.37;101563.84;5050146;28;46129;-62
2022/11/13 01:44:16;;;;;;;;;41.75;37.25;;;;;13.21;72.46;101556.88;5056258;28;46376;-62
2022/11/13 01:46:44;;;;;;;;;42.75;37.00;;;;;13.22;72.68;101567.41;5050301;28;46073;-63
2022/11/13 01:49:09;;;;;;;;;47.50;40.75;;;;;13.22;72.43;101562.13;5055902;28;45575;-63
2022/11/13 01:51:37;;;;;;;;;39.00;34.50;;;;;13.23;72.30;101563.00;5056448;28;45513;-63
2022/11/13 01:54:07;;;;;;;;;47.25;38.75;;;;;13.21;72.32;101546.31;5056140;28;45443;-63
2022/11/13 01:56:33;;;;;;;;;48.25;41.00;;;;;13.22;72.54;101553.34;5056404;28;45415;-62
2022/11/13 01:59:17;;;;;;;;;44.75;37.75;;;;;13.22;72.71;101554.22;5056013;28;45439;-62
2022/11/13 02:01:43;;;;;;;;;43.25;37.00;;;;;13.20;72.51;101541.97;5056374;28;45419;-63
2022/11/13 02:04:09;;;;;;;;;47.25;39.75;;;;;13.21;72.38;101535.75;5055805;28;46031;-62
2022/11/13 02:06:55;;;;;;;;;46.25;40.25;;;;;13.20;72.25;101540.16;5056236;28;45557;-63
2022/11/13 02:09:25;;;;;;;;;48.00;40.50;;;;;13.19;72.21;101533.16;5056020;28;45534;-63
2022/11/13 02:11:51;;;;;;;;;44.75;38.00;;;;;13.17;71.78;101527.06;5056183;28;45443;-62
2022/11/13 02:14:18;;;;;;;;;47.25;38.75;;;;;13.16;72.51;101530.59;5044740;28;46308;-63
2022/11/13 02:16:47;;;;;;;;;47.75;40.50;;;;;13.18;72.20;101528.78;5053019;28;45527;-64
2022/11/13 02:19:21;;;;;;;;;50.25;42.00;;;;;13.16;72.16;101527.09;5056077;28;45411;-64
2022/11/13 02:22:03;;;;;;;;;49.00;42.00;;;;;13.14;72.36;101521.88;5055916;28;45570;-64
2022/11/13 02:24:35;;;;;;;;;49.25;41.50;;;;;13.13;72.14;101525.41;5055843;28;46248;-63
2022/11/13 02:27:05;;;;;;;;;49.50;41.50;;;;;13.12;72.53;101528.97;5037717;28;46488;-63
2022/11/13 02:29:31;;;;;;;;;47.00;39.50;;;;;13.10;72.12;101529.94;5036980;28;45631;-64
2022/11/13 02:31:56;;;;;;;;;49.50;41.25;;;;;13.08;72.73;101527.34;5055936;28;45423;-63
2022/11/13 02:34:22;;;;;;;;;47.50;40.00;;;;;13.06;72.29;101515.97;5047918;28;47275;-64
2022/11/13 02:36:48;;;;;;;;;40.50;35.75;;;;;13.04;72.57;101521.28;5035489;28;45554;-64
2022/11/13 02:39:13;;;;;;;;;45.75;39.50;;;;;13.05;72.69;101520.38;5039243;28;45507;-63
2022/11/13 02:41:39;;;;;;;;;44.00;37.00;;;;;13.02;72.28;101515.19;5054882;28;45439;-64
2022/11/13 02:44:05;;;;;;;;;37.50;34.25;;;;;13.01;72.44;101510.81;5041171;28;45384;-63
2022/11/13 02:46:31;;;;;;;;;44.50;38.00;;;;;13.01;72.25;101516.09;5055733;28;45458;-63
2022/11/13 02:48:56;;;;;;;;;43.75;38.75;;;;;13.01;72.37;101516.09;5055490;28;45438;-64
2022/11/13 02:51:22;;;;;;;;;45.25;38.00;;;;;13.00;72.52;101502.94;5047310;28;46660;-63
2022/11/13 02:53:47;;;;;;;;;43.75;38.00;;;;;13.00;72.52;101498.53;5049426;28;46478;-64
2022/11/13 02:56:13;;;;;;;;;42.50;37.50;;;;;13.01;72.40;101502.91;5055347;28;45493;-63
2022/11/13 02:58:38;;;;;;;;;47.25;37.50;;;;;13.01;72.48;101500.25;5055726;28;45415;-64
2022/11/13 03:01:04;;;;;;;;;42.75;37.00;;;;;12.99;72.24;101499.44;5055260;28;45321;-64
2022/11/13 03:03:29;;;;;;;;;40.25;36.75;;;;;13.01;72.52;101513.47;5055213;28;45567;-64
2022/11/13 03:05:54;;;;;;;;;39.00;35.00;;;;;12.99;72.07;101512.63;5055468;28;45500;-64
2022/11/13 03:08:22;;;;;;;;;41.67;35.33;;;;;12.98;72.18;101516.22;5048144;28;45873;-64
2022/11/13 03:10:48;;;;;;;;;33.00;32.00;;;;;12.97;72.46;101514.47;5048771;28;45546;-63
2022/11/13 03:13:13;;;;;;;;;32.00;31.33;;;;;12.96;71.80;101510.09;5055042;28;45460;-63
2022/11/13 03:15:39;;;;;;;;;34.00;32.00;;;;;12.96;72.12;101507.47;5036691;28;45439;-64
2022/11/13 03:18:05;;;;;;;;;34.33;33.33;;;;;12.97;71.96;101505.69;5055199;28;45872;-62
2022/11/13 03:20:31;;;;;;;;;32.00;32.00;;;;;12.97;72.14;101509.19;5054560;28;45466;-63
2022/11/13 03:22:56;;;;;;;;;32.00;31.00;;;;;12.96;71.68;101503.97;5036975;28;46909;-62
2022/11/13 03:25:22;;;;;;;;;34.00;32.33;;;;;12.98;72.10;101504.78;5054867;28;46682;-63
2022/11/13 03:27:47;;;;;;;;;36.33;33.67;;;;;12.97;71.88;101509.19;5055210;28;45468;-64
2022/11/13 03:30:13;;;;;;;;;28.67;28.00;;;;;12.98;72.28;101510.06;5054843;28;45678;-64
2022/11/13 03:32:38;;;;;;;;;26.67;25.33;;;;;12.97;71.87;101500.41;5050145;28;45534;-63
2022/11/13 03:35:04;;;;;;;;;31.67;29.33;;;;;12.96;72.16;101499.53;5046919;28;45367;-63
2022/11/13 03:37:29;;;;;;;;;34.00;31.00;;;;;12.95;71.90;101499.56;5055420;28;45482;-64
2022/11/13 03:39:55;;;;;;;;;26.00;26.00;;;;;12.94;71.53;101489.94;5055346;28;45372;-62
2022/11/13 03:42:20;;;;;;;;;30.33;27.67;;;;;12.95;71.67;101483.72;5048782;28;46274;-62
2022/11/13 03:44:45;;;;;;;;;27.67;25.00;;;;;12.89;71.74;101482.16;5039656;28;50445;-64
2022/11/13 03:47:11;;;;;;;;;28.00;28.00;;;;;12.91;71.67;101480.34;5045193;28;45452;-64
2022/11/13 03:49:36;;;;;;;;;31.00;29.33;;;;;12.90;71.24;101475.13;5027977;28;45682;-61
2022/11/13 03:52:01;;;;;;;;;30.67;27.67;;;;;12.89;71.72;101481.28;5048628;28;45555;-66
2022/11/13 03:54:27;;;;;;;;;30.67;28.00;;;;;12.88;72.05;101476.94;5056837;28;45393;-66
2022/11/13 03:56:52;;;;;;;;;35.67;32.67;;;;;12.88;71.27;101476.94;5043446;28;45488;-64
2022/11/13 03:59:17;;;;;;;;;27.00;27.00;;;;;12.88;71.26;101476.94;5035537;28;45557;-64
2022/11/13 04:01:43;;;;;;;;;32.00;30.67;;;;;12.88;71.32;101477.78;5039531;28;46127;-65
2022/11/13 04:04:08;;;;;;;;;30.33;27.33;;;;;12.87;71.56;101470.78;5032529;28;45460;-67
2022/11/13 04:06:33;;;;;;;;;29.67;24.67;;;;;12.88;71.48;101471.66;5043034;28;45473;-64
2022/11/13 04:08:59;;;;;;;;;24.33;21.33;;;;;12.85;71.48;101462.06;5033832;28;45630;-64
2022/11/13 04:11:24;;;;;;;;;29.33;28.33;;;;;12.85;71.12;101464.69;5032947;28;45527;-68
2022/11/13 04:13:49;;;;;;;;;41.00;37.25;;;;;12.84;71.00;101457.66;5033153;28;45451;-62
2022/11/13 04:16:14;;;;;;;;;41.25;36.50;;;;;12.83;71.44;101453.31;5033956;28;45388;-62
2022/11/13 04:18:40;;;;;;;;;37.00;33.67;;;;;12.82;71.81;101457.72;5038840;28;45434;-66
2022/11/13 04:21:05;;;;;;;;;35.67;32.00;;;;;12.84;71.22;101457.66;5045347;28;45475;-65
2022/11/13 04:23:31;;;;;;;;;36.00;33.50;;;;;12.80;70.80;101456.91;5033916;28;45484;-64
2022/11/13 04:25:56;;;;;;;;;37.33;34.00;;;;;12.79;71.49;101456.97;5037461;28;45493;-64
2022/11/13 04:28:22;;;;;;;;;39.50;36.00;;;;;12.79;71.21;101462.25;5027432;28;45635;-65
2022/11/13 04:30:47;;;;;;;;;37.33;34.33;;;;;12.79;71.24;101464.88;5036091;28;45470;-65
2022/11/13 04:33:13;;;;;;;;;31.33;30.33;;;;;12.79;71.49;101467.53;5036512;28;45519;-65
2022/11/13 04:35:40;;;;;;;;;31.00;29.00;;;;;12.79;71.35;101463.09;5044285;28;45853;-66
2022/11/13 04:38:06;;;;;;;;;23.67;23.33;;;;;12.78;71.40;101461.34;5027575;28;45511;-67
2022/11/13 04:40:32;;;;;;;;;27.67;26.67;;;;;12.77;71.03;101464.91;5041261;28;46588;-65
2022/11/13 04:42:57;;;;;;;;;32.00;30.00;;;;;12.78;71.04;101461.34;5035361;28;45537;-66
2022/11/13 04:45:25;;;;;;;;;27.67;25.00;;;;;12.79;71.36;101456.97;5054279;28;53489;-66
2022/11/13 04:47:50;;;;;;;;;26.33;25.67;;;;;12.77;71.00;101453.50;5057945;28;45634;-64
2022/11/13 04:50:16;;;;;;;;;31.67;31.33;;;;;12.77;71.17;101450.88;5056583;28;45476;-63
2022/11/13 04:52:42;;;;;;;;;28.33;27.67;;;;;12.77;71.12;101448.22;5057552;28;45466;-65
2022/11/13 04:55:09;;;;;;;;;30.67;28.67;;;;;12.75;71.39;101450.91;5057753;28;45437;-63
2022/11/13 04:57:35;;;;;;;;;27.67;26.00;;;;;12.76;71.02;101450.00;5037928;28;45422;-68
2022/11/13 05:00:01;;;;;;;;;28.00;27.00;;;;;12.76;71.08;101452.66;5044125;28;46016;-63
2022/11/13 05:02:26;;;;;;;;;35.00;32.00;;;;;12.75;71.36;101450.91;5057366;28;45536;-65
2022/11/13 05:04:52;;;;;;;;;26.33;24.67;;;;;12.76;71.01;101452.66;5057235;28;45486;-66
2022/11/13 05:07:17;;;;;;;;;32.33;31.00;;;;;12.75;70.59;101450.03;5057394;28;45590;-64
2022/11/13 05:09:43;;;;;;;;;30.67;30.00;;;;;12.74;70.71;101446.53;5057024;28;45513;-66
2022/11/13 05:12:08;;;;;;;;;32.00;30.67;;;;;12.73;71.31;101436.88;5057081;28;45431;-63
2022/11/13 05:14:35;;;;;;;;;31.67;30.67;;;;;12.73;70.95;101439.50;5056978;28;45377;-65
2022/11/13 05:17:01;;;;;;;;;28.33;28.33;;;;;12.73;70.63;101439.50;5056595;28;45467;-65
2022/11/13 05:19:26;;;;;;;;;38.00;34.00;;;;;12.73;70.47;101441.28;5056793;28;45966;-65
2022/11/13 05:21:52;;;;;;;;;34.00;32.67;;;;;12.71;70.89;101437.88;5056760;28;45344;-64
2022/11/13 05:24:17;;;;;;;;;32.33;30.00;;;;;12.70;70.45;101444.03;5057162;28;45371;-67
2022/11/13 05:26:42;;;;;;;;;31.67;31.67;;;;;12.67;70.26;101439.72;5056782;28;45504;-65
2022/11/13 05:29:07;;;;;;;;;29.67;28.00;;;;;12.66;71.06;101445.91;5056926;28;45578;-66
2022/11/13 05:31:33;;;;;;;;;33.00;31.33;;;;;12.65;70.69;101446.81;5056667;28;45509;-66
2022/11/13 05:33:58;;;;;;;;;32.67;31.00;;;;;12.65;70.83;101436.25;5038861;28;45354;-64
2022/11/13 05:36:23;;;;;;;;;31.67;30.00;;;;;12.63;70.97;101435.44;5057565;28;45448;-65
2022/11/13 05:38:49;;;;;;;;;31.67;31.67;;;;;12.63;70.77;101429.28;5056595;28;46081;-64
2022/11/13 05:41:17;;;;;;;;;30.00;28.00;;;;;12.63;70.77;101437.19;5056794;28;45355;-66
2022/11/13 05:43:43;;;;;;;;;33.33;30.33;;;;;12.59;70.58;101433.81;5037653;28;45459;-67
2022/11/13 05:46:12;;;;;;;;;29.00;29.00;;;;;12.59;70.20;101421.47;5056732;28;45461;-63
2022/11/13 05:48:38;;;;;;;;;32.67;29.67;;;;;12.59;70.32;101425.88;5056209;28;45498;-65
2022/11/13 05:51:06;;;;;;;;;31.33;29.33;;;;;12.56;70.63;101426.84;5056661;28;45459;-68
2022/11/13 05:53:32;;;;;;;;;27.33;25.00;;;;;12.55;70.47;101427.75;5056466;28;45564;-63
2022/11/13 05:56:06;;;;;;;;;25.67;24.67;;;;;12.53;70.15;101419.03;5038414;28;45393;-66
2022/11/13 05:58:32;;;;;;;;;29.00;28.00;;;;;12.51;70.54;101409.44;5056461;28;46092;-64
2022/11/13 06:01:16;;;;;;;;;23.00;23.00;;;;;12.50;70.34;101405.06;5056134;28;45442;-67
2022/11/13 06:03:42;;;;;;;;;25.67;24.00;;;;;12.49;70.18;101404.22;5056460;28;45542;-63
2022/11/13 06:06:10;;;;;;;;;23.33;23.33;;;;;12.50;70.21;101391.88;5056084;28;45613;-64
2022/11/13 06:08:36;;;;;;;;;24.00;22.67;;;;;12.50;69.96;101391.88;5056218;28;45838;-65
2022/11/13 06:11:07;;;;;;;;;25.00;23.67;;;;;12.49;69.62;101383.09;5055967;28;45482;-65
2022/11/13 06:13:33;;;;;;;;;26.00;25.67;;;;;12.50;69.96;101387.47;5056416;28;45557;-64
2022/11/13 06:16:04;;;;;;;;;18.00;16.33;;;;;12.50;70.07;101386.59;5037913;28;45549;-64
2022/11/13 06:18:30;;;;;;;;;21.00;21.00;;;;;12.47;69.98;101384.06;5056196;28;45450;-63
2022/11/13 06:21:01;;;;;;;;;24.67;24.67;;;;;12.44;69.86;101377.09;5055811;28;45541;-64
2022/11/13 06:23:26;;;;;;;;;24.67;23.67;;;;;12.45;70.25;101377.97;5056176;28;45509;-65
2022/11/13 06:25:51;;;;;;;;;28.67;28.00;;;;;12.43;70.15;101369.22;5055819;28;45644;-66
2022/11/13 06:28:17;;;;;;;;;25.67;25.67;;;;;12.42;69.89;101376.28;5055921;28;46274;-65
2022/11/13 06:30:42;;;;;;;;;29.33;28.67;;;;;12.42;69.88;101373.63;5055670;28;47078;-65
2022/11/13 06:33:07;;;;;;;;;29.00;28.00;;;;;12.41;69.90;101371.91;5055695;28;47531;-66
2022/11/13 06:35:33;;;;;;;;;27.33;24.67;;;;;12.40;70.02;101369.31;5056518;28;45738;-66
2022/11/13 06:37:58;;;;;;;;;29.00;28.00;;;;;12.40;69.88;101364.91;5055496;28;47447;-66
2022/11/13 06:40:23;;;;;;;;;25.00;25.00;;;;;12.36;69.81;101360.66;5055974;28;45474;-65
2022/11/13 06:42:48;;;;;;;;;28.33;23.33;;;;;12.38;70.14;101369.34;5045705;28;45389;-63
2022/11/13 06:45:14;;;;;;;;;25.00;24.67;;;;;12.36;69.73;101369.41;5051344;28;45435;-65
2022/11/13 06:47:39;;;;;;;;;23.67;21.67;;;;;12.36;69.70;101363.28;5055177;28;46805;-63
2022/11/13 06:50:05;;;;;;;;;20.00;18.33;;;;;12.35;69.56;101377.38;5055046;28;51256;-66
2022/11/13 06:52:31;;;;;;;;;23.00;23.00;;;;;12.34;69.50;101371.22;5055501;28;45569;-66
2022/11/13 06:54:56;;;;;;;;;22.33;22.00;;;;;12.34;69.22;101367.75;5054934;28;45652;-63
2022/11/13 06:57:22;;;;;;;;;20.67;18.67;;;;;12.34;69.05;101373.00;5054316;28;45462;-63
2022/11/13 06:59:47;;;;;;;;;24.67;23.67;;;;;12.31;69.30;101368.69;5054452;28;45507;-66
2022/11/13 07:02:12;;;;;;;;;25.33;23.33;;;;;12.35;69.66;101372.09;5055084;28;45347;-64
2022/11/13 07:04:38;;;;;;;;;25.00;24.33;;;;;12.34;69.05;101371.22;5055197;28;45596;-67
2022/11/13 07:07:03;;;;;;;;;26.00;24.33;;;;;12.35;69.59;101372.09;5055108;28;47053;-66
2022/11/13 07:09:29;;;;;;;;;26.00;26.00;;;;;12.35;69.48;101358.91;5054859;28;45426;-65
2022/11/13 07:11:55;;;;;;;;;23.67;22.67;;;;;12.31;68.94;101365.19;5055209;28;45461;-64
2022/11/13 07:14:20;;;;;;;;;27.33;27.33;;;;;12.31;69.42;101359.91;5055110;28;45573;-64
2022/11/13 07:16:45;;;;;;;;;23.00;23.00;;;;;12.29;68.95;101361.72;5054604;28;45398;-65
2022/11/13 07:19:11;;;;;;;;;23.33;22.67;;;;;12.30;69.00;101359.03;5055105;28;45479;-67
2022/11/13 07:21:36;;;;;;;;;23.33;23.00;;;;;12.29;68.51;101367.00;5055273;28;45948;-66
2022/11/13 07:24:01;;;;;;;;;22.33;21.67;;;;;12.28;68.66;101367.94;5055249;28;45616;-66
2022/11/13 07:26:27;;;;;;;;;24.33;24.00;;;;;12.28;68.63;101370.56;5054840;28;46120;-65
2022/11/13 07:28:52;;;;;;;;;24.00;22.33;;;;;12.28;68.68;101368.78;5054987;28;45396;-65
2022/11/13 07:31:17;;;;;;;;;22.00;22.00;;;;;12.27;68.32;101368.81;5055117;28;45416;-59
2022/11/13 07:33:43;;;;;;;;;104.25;96.00;;;;;12.28;68.93;101365.28;5053468;28;45483;-63
2022/11/13 07:36:09;;;;;;;;;28.00;27.00;;;;;12.28;68.99;101373.19;5051160;28;45979;-63
2022/11/13 07:38:35;;;;;;;;;18.00;18.00;;;;;12.29;68.46;101377.56;5044458;28;45484;-62
2022/11/13 07:41:00;;;;;;;;;24.00;23.00;;;;;12.29;68.66;101370.50;5049132;28;45379;-63
2022/11/13 07:43:26;;;;;;;;;25.00;22.67;;;;;12.29;68.45;101372.28;5036089;28;45698;-64
2022/11/13 07:45:53;;;;;;;;;26.33;25.33;;;;;12.28;68.20;101367.94;5049193;28;46122;-64
2022/11/13 07:48:20;;;;;;;;;21.33;20.33;;;;;12.27;68.47;101363.53;5037031;28;45439;-65
2022/11/13 07:50:45;;;;;;;;;24.33;23.33;;;;;12.23;67.87;101352.22;5059360;28;45437;-62
2022/11/13 07:53:10;;;;;;;;;25.33;23.33;;;;;12.23;68.36;101348.75;5055122;28;45599;-65
2022/11/13 07:55:36;;;;;;;;;24.33;23.00;;;;;12.20;68.16;101357.59;5055065;28;46112;-61
2022/11/13 07:58:03;;;;;;;;;26.67;26.67;;;;;12.19;68.24;101360.28;5055252;28;45367;-64
2022/11/13 08:00:30;;;;;;;;;23.67;23.67;;;;;12.19;68.53;101352.38;5054915;28;45452;-62
2022/11/13 08:02:55;;;;;;;;;22.00;22.00;;;;;12.20;67.89;101349.69;5049189;28;45408;-62
2022/11/13 08:05:21;;;;;;;;;22.67;21.67;;;;;12.22;67.80;101342.56;5048277;28;45477;-63
2022/11/13 08:07:51;;;;;;;;;22.33;21.33;;;;;12.25;68.66;101338.97;5055983;28;45522;-61
2022/11/13 08:10:18;;;;;;;;;27.33;24.33;;;;;12.27;68.42;101342.44;5058904;28;45426;-62
2022/11/13 08:12:44;;;;;;;;;23.00;21.00;;;;;12.28;68.21;101347.69;5040516;28;45369;-64
2022/11/13 08:15:10;;;;;;;;;23.33;23.33;;;;;12.28;67.63;101354.75;5058333;28;46614;-63
2022/11/13 08:17:35;;;;;;;;;22.67;21.33;;;;;12.27;67.68;101345.09;5058247;28;45482;-63
2022/11/13 08:20:00;;;;;;;;;23.33;23.00;;;;;12.24;67.70;101338.13;5058504;28;45510;-66
2022/11/13 08:22:26;;;;;;;;;22.67;22.67;;;;;12.26;67.37;101340.72;5058441;28;45573;-65
2022/11/13 08:24:54;;;;;;;;;23.00;22.67;;;;;12.22;67.49;101331.16;5056653;28;64809;-62
2022/11/13 08:27:20;;;;;;;;;25.33;24.00;;;;;12.21;68.08;101327.69;5058126;28;45399;-61
2022/11/13 08:29:46;;;;;;;;;23.33;23.33;;;;;12.19;67.54;101329.47;5058307;28;45472;-62
2022/11/13 08:32:15;;;;;;;;;32.33;28.00;;;;;12.20;67.38;101339.16;5058441;28;45563;-64
2022/11/13 08:34:41;;;;;;;;;25.33;24.33;;;;;12.22;68.03;101339.94;5058012;28;45461;-65
2022/11/13 08:37:06;;;;;;;;;24.67;21.67;;;;;12.24;67.66;101332.00;5058551;28;45445;-65
2022/11/13 08:39:34;;;;;;;;;26.67;24.67;;;;;12.25;67.69;101334.59;5052305;28;47914;-65
2022/11/13 08:41:59;;;;;;;;;22.67;22.67;;;;;12.24;67.81;101324.06;5054133;28;45450;-64
2022/11/13 08:44:25;;;;;;;;;27.33;27.33;;;;;12.24;67.77;101327.56;5046896;28;45771;-62
2022/11/13 08:46:50;;;;;;;;;23.33;22.33;;;;;12.25;67.74;101317.88;5062488;28;45437;-61
2022/11/13 08:49:15;;;;;;;;;25.00;23.67;;;;;12.23;67.13;101310.03;5058093;28;45543;-66
2022/11/13 08:51:41;;;;;;;;;30.00;28.00;;;;;12.23;67.55;101317.94;5058123;28;45673;-62
2022/11/13 08:54:06;;;;;;;;;29.00;28.00;;;;;12.24;67.90;101308.25;5057645;28;46211;-64
2022/11/13 08:56:31;;;;;;;;;26.67;25.67;;;;;12.25;67.99;101310.84;5058033;28;45569;-64
2022/11/13 08:58:56;;;;;;;;;25.67;24.67;;;;;12.25;67.21;101312.59;5057134;28;45383;-62
2022/11/13 09:01:22;;;;;;;;;24.00;24.00;;;;;12.23;67.06;101306.53;5057657;28;45682;-65
2022/11/13 09:03:48;;;;;;;;;30.33;28.67;;;;;12.18;67.24;101297.91;5056403;28;45678;-63
2022/11/13 09:06:14;;;;;;;;;25.67;24.67;;;;;12.11;67.46;101289.31;5058076;28;45518;-63
2022/11/13 09:08:39;;;;;;;;;24.33;24.33;;;;;12.08;67.91;101295.53;5057745;28;45431;-65
2022/11/13 09:11:05;;;;;;;;;28.67;28.67;;;;;12.04;67.36;101293.91;5057678;28;45591;-62
2022/11/13 09:13:32;;;;;;;;;26.67;26.00;;;;;12.06;68.17;101288.56;5039428;28;47780;-63
2022/11/13 09:15:58;;;;;;;;;20.33;20.33;;;;;12.09;68.27;101285.84;5042586;28;45543;-63
2022/11/13 09:18:24;;;;;;;;;29.33;28.00;;;;;12.12;68.19;101289.28;5045537;28;45429;-65
2022/11/13 09:20:49;;;;;;;;;26.33;23.67;;;;;12.16;67.85;101293.53;5051630;28;50739;-66
2022/11/13 09:23:14;;;;;;;;;26.67;26.67;;;;;12.23;67.62;101286.31;5055459;28;46121;-65
2022/11/13 09:25:40;;;;;;;;;30.00;28.00;;;;;12.28;67.33;101283.53;5055958;28;45549;-64
2022/11/13 09:28:06;;;;;;;;;26.00;25.33;;;;;12.32;67.49;101282.50;5055445;28;49950;-65
2022/11/13 09:30:32;;;;;;;;;24.33;24.33;;;;;12.34;67.63;101284.19;5057353;28;45380;-63
2022/11/13 09:32:59;;;;;;;;;28.00;27.33;;;;;12.36;67.58;101285.00;5052888;28;45450;-63
2022/11/13 09:35:33;;;;;;;;;24.33;22.67;;;;;12.43;67.51;101285.66;5057170;28;45390;-66
2022/11/13 09:38:07;;;;;;;;;26.33;24.33;;;;;12.47;67.36;101287.31;5057107;28;45425;-63
2022/11/13 09:40:57;;;;;;;;;27.67;27.67;;;;;12.51;67.22;101278.34;5057348;28;45361;-64
2022/11/13 09:43:43;;;;;;;;;28.33;25.67;;;;;12.55;67.28;101280.00;5045108;28;45514;-64
2022/11/13 09:46:37;;;;;;;;;25.00;25.00;;;;;12.58;67.28;101279.91;5056236;28;45538;-64
2022/11/13 09:49:15;;;;;;;;;26.67;26.67;;;;;12.63;67.23;101285.03;5057209;28;45471;-64
2022/11/13 09:51:47;;;;;;;;;29.33;29.33;;;;;12.62;67.10;101277.16;5055990;28;45352;-63
2022/11/13 09:54:14;;;;;;;;;28.00;26.67;;;;;12.66;67.32;101276.16;5056774;28;45557;-65
2022/11/13 09:56:45;;;;;;;;;22.67;19.67;;;;;12.70;67.40;101262.78;5057017;28;45441;-64
2022/11/13 09:59:21;;;;;;;;;28.00;24.67;;;;;12.73;66.65;101273.22;5056848;28;45484;-64
2022/11/13 10:01:56;;;;;;;;;26.67;25.33;;;;;12.72;66.85;101262.75;5036079;28;45411;-64
2022/11/13 10:04:38;;;;;;;;;28.33;27.33;;;;;12.77;67.19;101266.09;5054619;28;45479;-66
2022/11/13 10:07:09;;;;;;;;;24.67;23.00;;;;;12.80;66.78;101265.97;5038724;28;45422;-63
2022/11/13 10:09:57;;;;;;;;;28.00;26.67;;;;;12.82;66.63;101258.88;5050938;28;46040;-63
2022/11/13 10:12:26;;;;;;;;;28.33;23.33;;;;;12.85;66.55;101256.13;5052262;28;45363;-64
2022/11/13 10:14:54;;;;;;;;;29.67;26.67;;;;;12.89;66.55;101262.16;5055711;28;45651;-65
2022/11/13 10:18:05;;;;;;;;;27.67;26.00;;;;;12.90;66.63;101251.56;5056464;28;45428;-64
2022/11/13 10:20:50;;;;;;;;;27.67;27.33;;;;;12.92;66.42;101251.50;4938211;28;45551;-63
2022/11/13 10:23:18;;;;;;;;;30.67;30.67;;;;;12.91;66.58;101250.63;5042421;28;45489;-64
2022/11/13 10:25:44;;;;;;;;;31.33;30.33;;;;;12.95;66.71;101254.91;5052191;28;46843;-63
2022/11/13 10:28:25;;;;;;;;;32.33;26.67;;;;;12.95;66.62;101244.34;5055402;28;45421;-62
2022/11/13 10:30:50;;;;;;;;;30.33;30.33;;;;;12.98;66.31;101240.75;5048742;28;45592;-63
2022/11/13 10:33:18;;;;;;;;;26.67;26.33;;;;;12.99;66.61;101232.75;5056247;28;45534;-66
2022/11/13 10:35:47;;;;;;;;;24.67;23.67;;;;;13.00;66.27;101234.50;5038186;28;45515;-62
2022/11/13 10:38:24;;;;;;;;;29.00;28.33;;;;;13.03;66.87;101233.53;5055144;28;45475;-62
2022/11/13 10:40:50;;;;;;;;;27.00;24.67;;;;;13.03;66.80;101230.88;5048889;28;45530;-64
2022/11/13 10:43:24;;;;;;;;;31.67;26.67;;;;;13.04;66.49;101225.53;5040100;28;45637;-64
2022/11/13 10:46:01;;;;;;;;;30.33;28.67;;;;;13.07;66.86;101226.34;5042610;28;45402;-63
2022/11/13 10:48:28;;;;;;;;;35.00;30.33;;;;;13.08;66.78;101228.06;5056193;28;45584;-65
2022/11/13 10:51:06;;;;;;;;;31.00;28.00;;;;;13.08;66.43;101228.06;5055129;28;45557;-64
2022/11/13 10:53:40;;;;;;;;;32.33;31.00;;;;;13.11;66.59;101227.94;5054514;28;45479;-62
2022/11/13 10:56:20;;;;;;;;;29.33;28.67;;;;;13.13;66.30;101223.47;5053101;28;45502;-64
2022/11/13 10:59:01;;;;;;;;;31.00;31.00;;;;;13.14;66.74;101212.00;5051492;28;45449;-64
2022/11/13 11:01:28;;;;;;;;;32.00;31.00;;;;;13.15;66.81;101208.44;5046447;28;45387;-64
2022/11/13 11:03:53;;;;;;;;;28.00;26.00;;;;;13.19;67.01;101207.41;5049904;28;45699;-64
2022/11/13 11:06:18;;;;;;;;;29.33;28.33;;;;;13.20;66.41;101206.50;5048476;28;47718;-63
2022/11/13 11:08:44;;;;;;;;;28.00;27.67;;;;;13.21;66.60;101197.66;5047045;28;45415;-65
2022/11/13 11:14:19;;;;;;;;;29.00;27.33;;;;;13.26;66.61;101185.16;5054475;28;45421;-62